Litchfield, Ohio
Current Conditions -  °F | °C
As of 10:53 AM on Friday 28 Nov 2014 (Local Time) from KLPR Reporting Station
Overcast Overcast  
Wind Chill: 14°   Ceiling: 11000
Heat Index: 22°   Visibility: 10mi
Dew Point: 12°   Wind: 6mph
Humidity: 66%   Direction: 240°WSW
Pressure: 30.35"   Gusts: NA
Location:  41.17°N, 82.02°W
Report Text: KLPR 281553Z AUTO 24005KT 10SM SCT036 OVC110 M06/M11 A3035 RMK AO2 SLP288 T10561111 TSNO
Loading
Personal Weather Stations






























Interactive Weather Map New forecast layout! Learn more

10-Day Weather Forecast

Advertisements
Track Severe Weather on mobile